sensor_id;sensor_type;location;lat;lon;timestamp;temperature;humidity
16102;DHT22;56411;52.964;10.540;2022-10-16T00:01:15;12.50;99.90
16102;DHT22;56411;52.964;10.540;2022-10-16T00:03:46;12.40;99.90
16102;DHT22;56411;52.964;10.540;2022-10-16T00:06:14;12.40;99.90
16102;DHT22;56411;52.964;10.540;2022-10-16T00:08:41;12.40;99.90
16102;DHT22;56411;52.964;10.540;2022-10-16T00:11:17;12.40;99.90
16102;DHT22;56411;52.964;10.540;2022-10-16T00:13:45;12.20;99.90
16102;DHT22;56411;52.964;10.540;2022-10-16T00:16:13;12.00;99.90
16102;DHT22;56411;52.964;10.540;2022-10-16T00:18:40;12.00;99.90
16102;DHT22;56411;52.964;10.540;2022-10-16T00:21:09;12.00;99.90
16102;DHT22;56411;52.964;10.540;2022-10-16T00:23:37;12.00;99.90
16102;DHT22;56411;52.964;10.540;2022-10-16T00:26:17;12.00;99.90
16102;DHT22;56411;52.964;10.540;2022-10-16T00:28:48;11.90;99.90
16102;DHT22;56411;52.964;10.540;2022-10-16T00:31:19;11.90;99.90
16102;DHT22;56411;52.964;10.540;2022-10-16T00:33:47;11.80;99.90
16102;DHT22;56411;52.964;10.540;2022-10-16T00:36:28;11.80;99.90
16102;DHT22;56411;52.964;10.540;2022-10-16T00:38:57;11.80;99.90
16102;DHT22;56411;52.964;10.540;2022-10-16T00:41:28;11.80;99.90
16102;DHT22;56411;52.964;10.540;2022-10-16T00:44:00;11.80;99.90
16102;DHT22;56411;52.964;10.540;2022-10-16T00:46:38;11.80;99.90
16102;DHT22;56411;52.964;10.540;2022-10-16T00:49:08;11.80;99.90
16102;DHT22;56411;52.964;10.540;2022-10-16T00:51:38;11.80;99.90
16102;DHT22;56411;52.964;10.540;2022-10-16T00:54:12;11.80;99.90
16102;DHT22;56411;52.964;10.540;2022-10-16T00:56:41;11.70;99.90
16102;DHT22;56411;52.964;10.540;2022-10-16T00:59:14;11.60;99.90
16102;DHT22;56411;52.964;10.540;2022-10-16T01:01:42;11.40;99.90
16102;DHT22;56411;52.964;10.540;2022-10-16T01:04:09;11.40;99.90
16102;DHT22;56411;52.964;10.540;2022-10-16T01:06:43;11.30;99.90
16102;DHT22;56411;52.964;10.540;2022-10-16T01:09:17;11.30;99.90
16102;DHT22;56411;52.964;10.540;2022-10-16T01:11:57;11.10;99.90
16102;DHT22;56411;52.964;10.540;2022-10-16T01:14:34;11.00;99.90
16102;DHT22;56411;52.964;10.540;2022-10-16T01:17:11;11.00;99.90
16102;DHT22;56411;52.964;10.540;2022-10-16T01:19:57;10.90;99.90
16102;DHT22;56411;52.964;10.540;2022-10-16T01:22:33;11.00;99.90
16102;DHT22;56411;52.964;10.540;2022-10-16T01:25:06;11.10;99.90
16102;DHT22;56411;52.964;10.540;2022-10-16T01:27:36;11.20;99.90
16102;DHT22;56411;52.964;10.540;2022-10-16T01:30:10;11.20;99.90
16102;DHT22;56411;52.964;10.540;2022-10-16T01:32:42;11.10;99.90
16102;DHT22;56411;52.964;10.540;2022-10-16T01:35:13;11.10;99.90
16102;DHT22;56411;52.964;10.540;2022-10-16T01:37:44;11.10;99.90
16102;DHT22;56411;52.964;10.540;2022-10-16T01:40:15;11.00;99.90
16102;DHT22;56411;52.964;10.540;2022-10-16T01:42:47;10.90;99.90
16102;DHT22;56411;52.964;10.540;2022-10-16T01:45:16;10.90;99.90
16102;DHT22;56411;52.964;10.540;2022-10-16T01:47:45;10.80;99.90
16102;DHT22;56411;52.964;10.540;2022-10-16T01:50:14;10.70;99.90
16102;DHT22;56411;52.964;10.540;2022-10-16T01:52:44;10.60;99.90
16102;DHT22;56411;52.964;10.540;2022-10-16T01:55:15;10.60;99.90
16102;DHT22;56411;52.964;10.540;2022-10-16T01:57:47;10.50;99.90
16102;DHT22;56411;52.964;10.540;2022-10-16T02:00:17;10.40;99.90
16102;DHT22;56411;52.964;10.540;2022-10-16T02:02:47;10.50;99.90
16102;DHT22;56411;52.964;10.540;2022-10-16T02:05:20;10.40;99.90
16102;DHT22;56411;52.964;10.540;2022-10-16T02:07:48;10.30;99.90
16102;DHT22;56411;52.964;10.540;2022-10-16T02:10:16;10.30;99.90
16102;DHT22;56411;52.964;10.540;2022-10-16T02:12:49;10.30;99.90
16102;DHT22;56411;52.964;10.540;2022-10-16T02:15:17;10.30;99.90
16102;DHT22;56411;52.964;10.540;2022-10-16T02:17:44;10.20;99.90
16102;DHT22;56411;52.964;10.540;2022-10-16T02:20:11;10.20;99.90
16102;DHT22;56411;52.964;10.540;2022-10-16T02:22:40;10.20;99.90
16102;DHT22;56411;52.964;10.540;2022-10-16T02:25:10;10.10;99.90
16102;DHT22;56411;52.964;10.540;2022-10-16T02:27:43;10.10;99.90
16102;DHT22;56411;52.964;10.540;2022-10-16T02:30:17;9.90;99.90
16102;DHT22;56411;52.964;10.540;2022-10-16T02:32:48;9.80;99.90
16102;DHT22;56411;52.964;10.540;2022-10-16T02:35:17;9.80;99.90
16102;DHT22;56411;52.964;10.540;2022-10-16T02:37:46;9.80;99.90
16102;DHT22;56411;52.964;10.540;2022-10-16T02:40:13;9.80;99.90
16102;DHT22;56411;52.964;10.540;2022-10-16T02:42:41;9.80;99.90
16102;DHT22;56411;52.964;10.540;2022-10-16T02:45:10;9.70;99.90
16102;DHT22;56411;52.964;10.540;2022-10-16T02:47:38;9.60;99.90
16102;DHT22;56411;52.964;10.540;2022-10-16T02:50:06;9.50;99.90
16102;DHT22;56411;52.964;10.540;2022-10-16T02:52:33;9.50;99.90
16102;DHT22;56411;52.964;10.540;2022-10-16T02:55:00;9.50;99.90
16102;DHT22;56411;52.964;10.540;2022-10-16T02:57:27;9.40;99.90
16102;DHT22;56411;52.964;10.540;2022-10-16T02:59:54;9.50;99.90
16102;DHT22;56411;52.964;10.540;2022-10-16T03:02:20;9.60;99.90
16102;DHT22;56411;52.964;10.540;2022-10-16T03:04:49;9.60;99.90
16102;DHT22;56411;52.964;10.540;2022-10-16T03:07:16;9.50;99.90
16102;DHT22;56411;52.964;10.540;2022-10-16T03:09:42;9.60;99.90
16102;DHT22;56411;52.964;10.540;2022-10-16T03:12:09;9.60;99.90
16102;DHT22;56411;52.964;10.540;2022-10-16T03:14:37;9.50;99.90
16102;DHT22;56411;52.964;10.540;2022-10-16T03:17:05;9.40;99.90
16102;DHT22;56411;52.964;10.540;2022-10-16T03:19:32;9.30;99.90
16102;DHT22;56411;52.964;10.540;2022-10-16T03:22:00;9.20;99.90
16102;DHT22;56411;52.964;10.540;2022-10-16T03:24:27;9.20;99.90
16102;DHT22;56411;52.964;10.540;2022-10-16T03:26:54;9.20;99.90
16102;DHT22;56411;52.964;10.540;2022-10-16T03:29:20;9.20;99.90
16102;DHT22;56411;52.964;10.540;2022-10-16T03:31:47;9.30;99.90
16102;DHT22;56411;52.964;10.540;2022-10-16T03:34:15;9.30;99.90
16102;DHT22;56411;52.964;10.540;2022-10-16T03:36:42;9.60;99.90
16102;DHT22;56411;52.964;10.540;2022-10-16T03:39:10;9.80;99.90
16102;DHT22;56411;52.964;10.540;2022-10-16T03:41:37;9.80;99.90
16102;DHT22;56411;52.964;10.540;2022-10-16T03:44:03;9.90;99.90
16102;DHT22;56411;52.964;10.540;2022-10-16T03:46:30;10.10;99.90
16102;DHT22;56411;52.964;10.540;2022-10-16T03:48:57;10.20;99.90
16102;DHT22;56411;52.964;10.540;2022-10-16T03:51:24;10.30;99.90
16102;DHT22;56411;52.964;10.540;2022-10-16T03:53:51;10.30;99.90
16102;DHT22;56411;52.964;10.540;2022-10-16T03:56:19;10.30;99.90
16102;DHT22;56411;52.964;10.540;2022-10-16T03:58:46;10.40;99.90
16102;DHT22;56411;52.964;10.540;2022-10-16T04:01:14;10.40;99.90
16102;DHT22;56411;52.964;10.540;2022-10-16T04:03:41;10.40;99.90
16102;DHT22;56411;52.964;10.540;2022-10-16T04:06:08;10.40;99.90
16102;DHT22;56411;52.964;10.540;2022-10-16T04:08:35;10.50;99.90
16102;DHT22;56411;52.964;10.540;2022-10-16T04:11:02;10.40;99.90
16102;DHT22;56411;52.964;10.540;2022-10-16T04:13:31;10.20;99.90
16102;DHT22;56411;52.964;10.540;2022-10-16T04:15:57;10.00;99.90
16102;DHT22;56411;52.964;10.540;2022-10-16T04:18:24;9.80;99.90
16102;DHT22;56411;52.964;10.540;2022-10-16T04:20:52;9.60;99.90
16102;DHT22;56411;52.964;10.540;2022-10-16T04:23:19;9.50;99.90
16102;DHT22;56411;52.964;10.540;2022-10-16T04:25:48;9.40;99.90
16102;DHT22;56411;52.964;10.540;2022-10-16T04:28:15;9.30;99.90
16102;DHT22;56411;52.964;10.540;2022-10-16T04:30:43;9.20;99.90
16102;DHT22;56411;52.964;10.540;2022-10-16T04:33:10;9.20;99.90
16102;DHT22;56411;52.964;10.540;2022-10-16T04:35:38;9.20;99.90
16102;DHT22;56411;52.964;10.540;2022-10-16T04:38:05;9.20;99.90
16102;DHT22;56411;52.964;10.540;2022-10-16T04:40:32;9.40;99.90
16102;DHT22;56411;52.964;10.540;2022-10-16T04:43:01;9.50;99.90
16102;DHT22;56411;52.964;10.540;2022-10-16T04:45:28;9.70;99.90
16102;DHT22;56411;52.964;10.540;2022-10-16T04:47:58;9.80;99.90
16102;DHT22;56411;52.964;10.540;2022-10-16T04:50:25;9.80;99.90
16102;DHT22;56411;52.964;10.540;2022-10-16T04:52:52;9.80;99.90
16102;DHT22;56411;52.964;10.540;2022-10-16T04:55:19;9.80;99.90
16102;DHT22;56411;52.964;10.540;2022-10-16T04:57:46;9.80;99.90
16102;DHT22;56411;52.964;10.540;2022-10-16T05:00:13;9.60;99.90
16102;DHT22;56411;52.964;10.540;2022-10-16T05:02:40;9.50;99.90
16102;DHT22;56411;52.964;10.540;2022-10-16T05:05:08;9.40;99.90
16102;DHT22;56411;52.964;10.540;2022-10-16T05:07:35;9.30;99.90
16102;DHT22;56411;52.964;10.540;2022-10-16T05:10:03;9.30;99.90
16102;DHT22;56411;52.964;10.540;2022-10-16T05:12:30;9.30;99.90
16102;DHT22;56411;52.964;10.540;2022-10-16T05:14:57;9.30;99.90
16102;DHT22;56411;52.964;10.540;2022-10-16T05:17:24;9.20;99.90
16102;DHT22;56411;52.964;10.540;2022-10-16T05:19:51;9.30;99.90
16102;DHT22;56411;52.964;10.540;2022-10-16T05:22:19;9.20;99.90
16102;DHT22;56411;52.964;10.540;2022-10-16T05:24:46;9.50;99.90
16102;DHT22;56411;52.964;10.540;2022-10-16T05:27:13;9.60;99.90
16102;DHT22;56411;52.964;10.540;2022-10-16T05:29:44;9.50;99.90
16102;DHT22;56411;52.964;10.540;2022-10-16T05:32:12;9.70;99.90
16102;DHT22;56411;52.964;10.540;2022-10-16T05:34:39;9.90;99.90
16102;DHT22;56411;52.964;10.540;2022-10-16T05:37:06;10.00;99.90
16102;DHT22;56411;52.964;10.540;2022-10-16T05:39:34;10.20;99.90
16102;DHT22;56411;52.964;10.540;2022-10-16T05:42:02;10.30;99.90
16102;DHT22;56411;52.964;10.540;2022-10-16T05:44:29;10.40;99.90
16102;DHT22;56411;52.964;10.540;2022-10-16T05:46:56;10.40;99.90
16102;DHT22;56411;52.964;10.540;2022-10-16T05:49:23;10.60;99.90
16102;DHT22;56411;52.964;10.540;2022-10-16T05:51:50;10.80;99.90
16102;DHT22;56411;52.964;10.540;2022-10-16T05:54:19;10.90;99.90
16102;DHT22;56411;52.964;10.540;2022-10-16T05:56:47;11.00;99.90
16102;DHT22;56411;52.964;10.540;2022-10-16T05:59:14;11.20;99.90
16102;DHT22;56411;52.964;10.540;2022-10-16T06:01:41;11.20;99.90
16102;DHT22;56411;52.964;10.540;2022-10-16T06:04:08;11.30;99.90
16102;DHT22;56411;52.964;10.540;2022-10-16T06:06:35;11.30;99.90
16102;DHT22;56411;52.964;10.540;2022-10-16T06:09:03;11.40;99.90
16102;DHT22;56411;52.964;10.540;2022-10-16T06:11:32;11.40;99.90
16102;DHT22;56411;52.964;10.540;2022-10-16T06:14:01;11.40;99.90
16102;DHT22;56411;52.964;10.540;2022-10-16T06:16:32;11.50;99.90
16102;DHT22;56411;52.964;10.540;2022-10-16T06:19:06;11.60;99.90
16102;DHT22;56411;52.964;10.540;2022-10-16T06:21:36;11.60;99.90
16102;DHT22;56411;52.964;10.540;2022-10-16T06:24:06;11.80;99.90
16102;DHT22;56411;52.964;10.540;2022-10-16T06:26:33;11.90;99.90
16102;DHT22;56411;52.964;10.540;2022-10-16T06:29:01;12.00;99.90
16102;DHT22;56411;52.964;10.540;2022-10-16T06:31:29;12.00;99.90
16102;DHT22;56411;52.964;10.540;2022-10-16T06:33:59;12.20;99.90
16102;DHT22;56411;52.964;10.540;2022-10-16T06:36:26;12.30;99.90
16102;DHT22;56411;52.964;10.540;2022-10-16T06:38:53;12.40;99.90
16102;DHT22;56411;52.964;10.540;2022-10-16T06:41:22;12.40;99.90
16102;DHT22;56411;52.964;10.540;2022-10-16T06:43:49;12.50;99.90
16102;DHT22;56411;52.964;10.540;2022-10-16T06:46:21;12.60;99.90
16102;DHT22;56411;52.964;10.540;2022-10-16T06:48:49;12.70;99.90
16102;DHT22;56411;52.964;10.540;2022-10-16T06:51:17;12.80;99.90
16102;DHT22;56411;52.964;10.540;2022-10-16T06:53:47;12.80;99.90
16102;DHT22;56411;52.964;10.540;2022-10-16T06:56:19;12.80;99.90
16102;DHT22;56411;52.964;10.540;2022-10-16T06:58:49;12.90;99.90
16102;DHT22;56411;52.964;10.540;2022-10-16T07:01:19;13.00;99.90
16102;DHT22;56411;52.964;10.540;2022-10-16T07:03:47;13.20;99.90
16102;DHT22;56411;52.964;10.540;2022-10-16T07:06:16;13.30;99.90
16102;DHT22;56411;52.964;10.540;2022-10-16T07:08:44;13.40;99.90
16102;DHT22;56411;52.964;10.540;2022-10-16T07:11:13;13.30;99.90
16102;DHT22;56411;52.964;10.540;2022-10-16T07:13:44;13.30;99.90
16102;DHT22;56411;52.964;10.540;2022-10-16T07:16:14;13.30;99.90
16102;DHT22;56411;52.964;10.540;2022-10-16T07:18:44;13.30;99.90
16102;DHT22;56411;52.964;10.540;2022-10-16T07:21:16;13.30;99.90
16102;DHT22;56411;52.964;10.540;2022-10-16T07:23:50;13.50;99.90
16102;DHT22;56411;52.964;10.540;2022-10-16T07:26:17;13.50;99.90
16102;DHT22;56411;52.964;10.540;2022-10-16T07:28:44;13.60;99.90
16102;DHT22;56411;52.964;10.540;2022-10-16T07:31:17;13.60;99.90
16102;DHT22;56411;52.964;10.540;2022-10-16T07:33:46;13.60;99.90
16102;DHT22;56411;52.964;10.540;2022-10-16T07:36:14;13.60;99.90
16102;DHT22;56411;52.964;10.540;2022-10-16T07:38:41;13.60;99.90
16102;DHT22;56411;52.964;10.540;2022-10-16T07:41:10;13.50;99.90
16102;DHT22;56411;52.964;10.540;2022-10-16T07:43:38;13.50;99.90
16102;DHT22;56411;52.964;10.540;2022-10-16T07:46:04;13.60;99.90
16102;DHT22;56411;52.964;10.540;2022-10-16T07:48:33;13.60;99.90
16102;DHT22;56411;52.964;10.540;2022-10-16T07:51:03;13.70;99.90
16102;DHT22;56411;52.964;10.540;2022-10-16T07:53:36;13.90;99.90
16102;DHT22;56411;52.964;10.540;2022-10-16T07:56:05;14.00;99.90
16102;DHT22;56411;52.964;10.540;2022-10-16T07:58:33;14.00;99.90
16102;DHT22;56411;52.964;10.540;2022-10-16T08:01:04;14.10;99.90
16102;DHT22;56411;52.964;10.540;2022-10-16T08:03:31;14.10;99.90
16102;DHT22;56411;52.964;10.540;2022-10-16T08:05:59;14.10;99.90
16102;DHT22;56411;52.964;10.540;2022-10-16T08:08:28;14.10;99.90
16102;DHT22;56411;52.964;10.540;2022-10-16T08:10:55;14.10;99.90
16102;DHT22;56411;52.964;10.540;2022-10-16T08:13:25;14.10;99.90
16102;DHT22;56411;52.964;10.540;2022-10-16T08:15:55;14.10;99.90
16102;DHT22;56411;52.964;10.540;2022-10-16T08:18:24;14.00;99.90
16102;DHT22;56411;52.964;10.540;2022-10-16T08:20:58;14.00;99.90
16102;DHT22;56411;52.964;10.540;2022-10-16T08:23:30;14.00;99.90
16102;DHT22;56411;52.964;10.540;2022-10-16T08:26:02;14.00;99.90
16102;DHT22;56411;52.964;10.540;2022-10-16T08:28:30;14.10;99.90
16102;DHT22;56411;52.964;10.540;2022-10-16T08:31:07;14.10;99.90
16102;DHT22;56411;52.964;10.540;2022-10-16T08:33:34;14.20;99.90
16102;DHT22;56411;52.964;10.540;2022-10-16T08:36:09;14.20;99.90
16102;DHT22;56411;52.964;10.540;2022-10-16T08:38:37;14.30;99.90
16102;DHT22;56411;52.964;10.540;2022-10-16T08:41:43;14.40;99.90
16102;DHT22;56411;52.964;10.540;2022-10-16T08:44:37;14.50;99.90
16102;DHT22;56411;52.964;10.540;2022-10-16T08:47:14;14.70;99.90
16102;DHT22;56411;52.964;10.540;2022-10-16T08:49:52;14.80;99.90
16102;DHT22;56411;52.964;10.540;2022-10-16T08:52:21;14.80;99.90
16102;DHT22;56411;52.964;10.540;2022-10-16T08:54:54;14.90;99.90
16102;DHT22;56411;52.964;10.540;2022-10-16T08:57:25;14.90;99.90
16102;DHT22;56411;52.964;10.540;2022-10-16T08:59:53;15.00;99.90
16102;DHT22;56411;52.964;10.540;2022-10-16T09:02:30;15.20;99.90
16102;DHT22;56411;52.964;10.540;2022-10-16T09:08:03;15.50;99.90
16102;DHT22;56411;52.964;10.540;2022-10-16T09:10:44;15.50;99.90
16102;DHT22;56411;52.964;10.540;2022-10-16T09:13:23;15.70;99.90
16102;DHT22;56411;52.964;10.540;2022-10-16T09:15:58;15.70;99.90
16102;DHT22;56411;52.964;10.540;2022-10-16T09:18:32;15.80;99.90
16102;DHT22;56411;52.964;10.540;2022-10-16T09:21:06;15.90;99.90
16102;DHT22;56411;52.964;10.540;2022-10-16T09:23:37;16.00;99.90
16102;DHT22;56411;52.964;10.540;2022-10-16T09:26:09;16.10;99.90
16102;DHT22;56411;52.964;10.540;2022-10-16T09:28:38;16.30;99.90
16102;DHT22;56411;52.964;10.540;2022-10-16T09:31:05;16.40;99.90
16102;DHT22;56411;52.964;10.540;2022-10-16T09:33:35;16.50;99.90
16102;DHT22;56411;52.964;10.540;2022-10-16T09:36:04;16.60;99.90
16102;DHT22;56411;52.964;10.540;2022-10-16T09:38:33;16.70;99.90
16102;DHT22;56411;52.964;10.540;2022-10-16T09:41:02;16.70;99.90
16102;DHT22;56411;52.964;10.540;2022-10-16T09:43:36;16.70;99.90
16102;DHT22;56411;52.964;10.540;2022-10-16T09:46:07;16.80;99.90
16102;DHT22;56411;52.964;10.540;2022-10-16T09:48:37;16.80;99.90
16102;DHT22;56411;52.964;10.540;2022-10-16T09:51:06;17.00;99.90
16102;DHT22;56411;52.964;10.540;2022-10-16T09:53:42;17.00;99.90
16102;DHT22;56411;52.964;10.540;2022-10-16T09:56:22;17.00;99.90
16102;DHT22;56411;52.964;10.540;2022-10-16T09:58:52;17.10;99.90
16102;DHT22;56411;52.964;10.540;2022-10-16T10:01:21;17.10;99.90
16102;DHT22;56411;52.964;10.540;2022-10-16T10:03:49;17.10;99.90
16102;DHT22;56411;52.964;10.540;2022-10-16T10:06:22;17.10;99.90
16102;DHT22;56411;52.964;10.540;2022-10-16T10:09:03;17.00;99.90
16102;DHT22;56411;52.964;10.540;2022-10-16T10:11:46;17.00;99.90
16102;DHT22;56411;52.964;10.540;2022-10-16T10:14:19;17.00;99.90
16102;DHT22;56411;52.964;10.540;2022-10-16T10:16:47;17.20;99.90
16102;DHT22;56411;52.964;10.540;2022-10-16T10:19:16;17.40;99.90
16102;DHT22;56411;52.964;10.540;2022-10-16T10:21:43;17.60;99.90
16102;DHT22;56411;52.964;10.540;2022-10-16T10:24:12;18.00;99.90
16102;DHT22;56411;52.964;10.540;2022-10-16T10:26:49;18.50;99.90
16102;DHT22;56411;52.964;10.540;2022-10-16T10:29:41;18.80;99.90
16102;DHT22;56411;52.964;10.540;2022-10-16T10:32:27;18.90;99.90
16102;DHT22;56411;52.964;10.540;2022-10-16T10:35:07;18.60;99.90
16102;DHT22;56411;52.964;10.540;2022-10-16T10:37:55;18.70;99.90
16102;DHT22;56411;52.964;10.540;2022-10-16T10:40:42;19.10;99.90
16102;DHT22;56411;52.964;10.540;2022-10-16T10:43:24;19.20;99.90
16102;DHT22;56411;52.964;10.540;2022-10-16T10:45:58;18.80;99.90
16102;DHT22;56411;52.964;10.540;2022-10-16T10:48:47;18.40;99.90
16102;DHT22;56411;52.964;10.540;2022-10-16T10:51:22;17.80;99.90
16102;DHT22;56411;52.964;10.540;2022-10-16T10:53:56;18.00;99.90
16102;DHT22;56411;52.964;10.540;2022-10-16T10:56:41;17.90;99.90
16102;DHT22;56411;52.964;10.540;2022-10-16T11:02:24;17.40;99.90
16102;DHT22;56411;52.964;10.540;2022-10-16T11:05:20;17.90;99.90
16102;DHT22;56411;52.964;10.540;2022-10-16T11:07:52;18.10;99.90
16102;DHT22;56411;52.964;10.540;2022-10-16T11:10:23;18.80;99.90
16102;DHT22;56411;52.964;10.540;2022-10-16T11:12:54;19.20;99.90
16102;DHT22;56411;52.964;10.540;2022-10-16T11:15:27;19.40;99.90
16102;DHT22;56411;52.964;10.540;2022-10-16T11:18:00;19.40;99.90
16102;DHT22;56411;52.964;10.540;2022-10-16T11:20:32;19.80;99.90
16102;DHT22;56411;52.964;10.540;2022-10-16T11:23:10;19.80;99.90
16102;DHT22;56411;52.964;10.540;2022-10-16T11:25:39;19.40;99.90
16102;DHT22;56411;52.964;10.540;2022-10-16T11:28:11;19.80;99.90
16102;DHT22;56411;52.964;10.540;2022-10-16T11:30:43;20.00;99.90
16102;DHT22;56411;52.964;10.540;2022-10-16T11:33:30;19.70;99.90
16102;DHT22;56411;52.964;10.540;2022-10-16T11:36:04;19.60;99.90
16102;DHT22;56411;52.964;10.540;2022-10-16T11:38:39;19.50;99.90
16102;DHT22;56411;52.964;10.540;2022-10-16T11:41:15;19.50;99.90
16102;DHT22;56411;52.964;10.540;2022-10-16T11:43:50;19.60;99.90
16102;DHT22;56411;52.964;10.540;2022-10-16T11:46:21;19.80;99.90
16102;DHT22;56411;52.964;10.540;2022-10-16T11:48:59;20.10;99.90
16102;DHT22;56411;52.964;10.540;2022-10-16T11:51:33;20.60;99.90
16102;DHT22;56411;52.964;10.540;2022-10-16T11:54:07;20.40;99.90
16102;DHT22;56411;52.964;10.540;2022-10-16T11:56:38;20.30;99.90
16102;DHT22;56411;52.964;10.540;2022-10-16T11:59:11;20.00;99.90
16102;DHT22;56411;52.964;10.540;2022-10-16T12:01:44;19.60;99.90
16102;DHT22;56411;52.964;10.540;2022-10-16T12:04:19;19.20;99.90
16102;DHT22;56411;52.964;10.540;2022-10-16T12:06:52;19.00;99.90
16102;DHT22;56411;52.964;10.540;2022-10-16T12:09:24;18.60;99.90
16102;DHT22;56411;52.964;10.540;2022-10-16T12:11:52;18.40;99.90
16102;DHT22;56411;52.964;10.540;2022-10-16T12:14:33;18.30;99.90
16102;DHT22;56411;52.964;10.540;2022-10-16T12:17:02;18.20;99.90
16102;DHT22;56411;52.964;10.540;2022-10-16T12:19:33;18.00;99.90
16102;DHT22;56411;52.964;10.540;2022-10-16T12:22:02;18.30;99.90
16102;DHT22;56411;52.964;10.540;2022-10-16T12:24:35;18.80;99.90
16102;DHT22;56411;52.964;10.540;2022-10-16T12:27:04;19.40;99.90
16102;DHT22;56411;52.964;10.540;2022-10-16T12:29:36;20.10;99.90
16102;DHT22;56411;52.964;10.540;2022-10-16T12:32:05;20.80;99.90
16102;DHT22;56411;52.964;10.540;2022-10-16T12:34:47;21.20;99.90
16102;DHT22;56411;52.964;10.540;2022-10-16T12:37:18;21.50;99.90
16102;DHT22;56411;52.964;10.540;2022-10-16T12:39:47;21.60;99.90
16102;DHT22;56411;52.964;10.540;2022-10-16T12:42:33;21.80;99.90
16102;DHT22;56411;52.964;10.540;2022-10-16T12:45:02;21.90;99.90
16102;DHT22;56411;52.964;10.540;2022-10-16T12:48:04;22.00;99.90
16102;DHT22;56411;52.964;10.540;2022-10-16T12:50:36;21.00;99.90
16102;DHT22;56411;52.964;10.540;2022-10-16T12:53:19;20.50;99.90
16102;DHT22;56411;52.964;10.540;2022-10-16T12:56:00;20.10;99.90
16102;DHT22;56411;52.964;10.540;2022-10-16T12:58:43;20.70;99.90
16102;DHT22;56411;52.964;10.540;2022-10-16T13:01:25;21.50;99.90
16102;DHT22;56411;52.964;10.540;2022-10-16T13:04:22;22.40;99.90
16102;DHT22;56411;52.964;10.540;2022-10-16T13:06:58;23.10;99.90
16102;DHT22;56411;52.964;10.540;2022-10-16T13:09:37;23.00;99.90
16102;DHT22;56411;52.964;10.540;2022-10-16T13:15:16;21.00;99.90
16102;DHT22;56411;52.964;10.540;2022-10-16T13:17:51;19.80;99.90
16102;DHT22;56411;52.964;10.540;2022-10-16T13:20:24;19.30;99.90
16102;DHT22;56411;52.964;10.540;2022-10-16T13:23:03;18.90;99.90
16102;DHT22;56411;52.964;10.540;2022-10-16T13:25:41;18.50;99.90
16102;DHT22;56411;52.964;10.540;2022-10-16T13:28:12;18.30;99.90
16102;DHT22;56411;52.964;10.540;2022-10-16T13:30:41;18.30;99.90
16102;DHT22;56411;52.964;10.540;2022-10-16T13:33:15;18.10;99.90
16102;DHT22;56411;52.964;10.540;2022-10-16T13:35:49;17.90;99.90
16102;DHT22;56411;52.964;10.540;2022-10-16T13:38:19;18.70;99.90
16102;DHT22;56411;52.964;10.540;2022-10-16T13:40:52;19.90;99.90
16102;DHT22;56411;52.964;10.540;2022-10-16T13:43:22;20.70;99.90
16102;DHT22;56411;52.964;10.540;2022-10-16T13:45:57;21.50;99.90
16102;DHT22;56411;52.964;10.540;2022-10-16T13:48:28;21.40;99.90
16102;DHT22;56411;52.964;10.540;2022-10-16T13:50:59;21.60;99.90
16102;DHT22;56411;52.964;10.540;2022-10-16T13:53:33;21.70;99.90
16102;DHT22;56411;52.964;10.540;2022-10-16T13:56:04;21.70;99.90
16102;DHT22;56411;52.964;10.540;2022-10-16T13:58:31;21.90;99.90
16102;DHT22;56411;52.964;10.540;2022-10-16T14:01:00;22.10;99.90
16102;DHT22;56411;52.964;10.540;2022-10-16T14:03:28;22.30;99.90
16102;DHT22;56411;52.964;10.540;2022-10-16T14:05:59;22.10;99.90
16102;DHT22;56411;52.964;10.540;2022-10-16T14:08:29;22.20;99.90
16102;DHT22;56411;52.964;10.540;2022-10-16T14:11:01;22.10;99.90
16102;DHT22;56411;52.964;10.540;2022-10-16T14:13:34;21.60;99.90
16102;DHT22;56411;52.964;10.540;2022-10-16T14:16:06;21.00;99.90
16102;DHT22;56411;52.964;10.540;2022-10-16T14:18:38;21.10;99.90
16102;DHT22;56411;52.964;10.540;2022-10-16T14:21:06;20.80;99.90
16102;DHT22;56411;52.964;10.540;2022-10-16T14:23:38;20.50;99.90
16102;DHT22;56411;52.964;10.540;2022-10-16T14:26:11;20.50;99.90
16102;DHT22;56411;52.964;10.540;2022-10-16T14:28:40;20.20;99.90
16102;DHT22;56411;52.964;10.540;2022-10-16T14:31:27;19.90;99.90
16102;DHT22;56411;52.964;10.540;2022-10-16T14:33:54;19.30;99.90
16102;DHT22;56411;52.964;10.540;2022-10-16T14:36:22;19.20;99.90
16102;DHT22;56411;52.964;10.540;2022-10-16T14:38:58;19.10;99.90
16102;DHT22;56411;52.964;10.540;2022-10-16T14:41:26;18.90;99.90
16102;DHT22;56411;52.964;10.540;2022-10-16T14:43:55;18.90;99.90
16102;DHT22;56411;52.964;10.540;2022-10-16T14:46:28;18.90;99.90
16102;DHT22;56411;52.964;10.540;2022-10-16T14:49:01;18.90;99.90
16102;DHT22;56411;52.964;10.540;2022-10-16T14:51:29;18.90;99.90
16102;DHT22;56411;52.964;10.540;2022-10-16T14:53:57;18.80;99.90
16102;DHT22;56411;52.964;10.540;2022-10-16T14:56:28;18.50;99.90
16102;DHT22;56411;52.964;10.540;2022-10-16T14:58:56;18.30;99.90
16102;DHT22;56411;52.964;10.540;2022-10-16T15:01:24;18.20;99.90
16102;DHT22;56411;52.964;10.540;2022-10-16T15:03:51;18.10;99.90
16102;DHT22;56411;52.964;10.540;2022-10-16T15:06:21;18.20;99.90
16102;DHT22;56411;52.964;10.540;2022-10-16T15:08:50;18.10;99.90
16102;DHT22;56411;52.964;10.540;2022-10-16T15:11:19;17.90;99.90
16102;DHT22;56411;52.964;10.540;2022-10-16T15:13:46;17.80;99.90
16102;DHT22;56411;52.964;10.540;2022-10-16T15:16:16;17.70;99.90
16102;DHT22;56411;52.964;10.540;2022-10-16T15:18:43;17.50;99.90
16102;DHT22;56411;52.964;10.540;2022-10-16T15:21:20;17.40;99.90
16102;DHT22;56411;52.964;10.540;2022-10-16T15:23:49;17.40;99.90
16102;DHT22;56411;52.964;10.540;2022-10-16T15:26:27;17.40;99.90
16102;DHT22;56411;52.964;10.540;2022-10-16T15:28:54;17.50;99.90
16102;DHT22;56411;52.964;10.540;2022-10-16T15:31:21;17.70;99.90
16102;DHT22;56411;52.964;10.540;2022-10-16T15:33:50;17.70;99.90
16102;DHT22;56411;52.964;10.540;2022-10-16T15:36:25;17.60;99.90
16102;DHT22;56411;52.964;10.540;2022-10-16T15:38:52;17.60;99.90
16102;DHT22;56411;52.964;10.540;2022-10-16T15:41:22;17.40;99.90
16102;DHT22;56411;52.964;10.540;2022-10-16T15:43:49;17.30;99.90
16102;DHT22;56411;52.964;10.540;2022-10-16T15:46:18;17.20;99.90
16102;DHT22;56411;52.964;10.540;2022-10-16T15:48:47;17.10;99.90
16102;DHT22;56411;52.964;10.540;2022-10-16T15:51:14;17.00;99.90